sensor_id;sensor_type;location;lat;lon;timestamp;P1;durP1;ratioP1;P2;durP2;ratioP2
36411;SDS011;22445;52.100;5.176;2023-06-22T00:02:13;6.10;;;4.38;;
36411;SDS011;22445;52.100;5.176;2023-06-22T00:04:39;4.70;;;3.75;;
36411;SDS011;22445;52.100;5.176;2023-06-22T00:07:05;4.60;;;3.85;;
36411;SDS011;22445;52.100;5.176;2023-06-22T00:09:31;6.38;;;4.50;;
36411;SDS011;22445;52.100;5.176;2023-06-22T00:11:56;7.13;;;3.80;;
36411;SDS011;22445;52.100;5.176;2023-06-22T00:14:22;5.85;;;4.35;;
36411;SDS011;22445;52.100;5.176;2023-06-22T00:16:47;5.43;;;3.60;;
36411;SDS011;22445;52.100;5.176;2023-06-22T00:19:14;6.68;;;4.25;;
36411;SDS011;22445;52.100;5.176;2023-06-22T00:21:41;4.47;;;3.90;;
36411;SDS011;22445;52.100;5.176;2023-06-22T00:24:08;6.65;;;4.63;;
36411;SDS011;22445;52.100;5.176;2023-06-22T00:26:33;7.43;;;4.22;;
36411;SDS011;22445;52.100;5.176;2023-06-22T00:28:59;6.22;;;4.75;;
36411;SDS011;22445;52.100;5.176;2023-06-22T00:31:24;9.07;;;4.63;;
36411;SDS011;22445;52.100;5.176;2023-06-22T00:33:50;7.47;;;5.13;;
36411;SDS011;22445;52.100;5.176;2023-06-22T00:36:15;8.52;;;4.97;;
36411;SDS011;22445;52.100;5.176;2023-06-22T00:38:43;7.00;;;5.25;;
36411;SDS011;22445;52.100;5.176;2023-06-22T00:41:08;7.97;;;5.60;;
36411;SDS011;22445;52.100;5.176;2023-06-22T00:43:34;9.57;;;6.45;;
36411;SDS011;22445;52.100;5.176;2023-06-22T00:45:59;8.15;;;5.93;;
36411;SDS011;22445;52.100;5.176;2023-06-22T00:48:25;5.53;;;4.95;;
36411;SDS011;22445;52.100;5.176;2023-06-22T00:50:51;7.72;;;6.68;;
36411;SDS011;22445;52.100;5.176;2023-06-22T00:53:18;8.30;;;6.30;;
36411;SDS011;22445;52.100;5.176;2023-06-22T00:55:44;7.10;;;5.72;;
36411;SDS011;22445;52.100;5.176;2023-06-22T00:58:12;5.45;;;4.47;;
36411;SDS011;22445;52.100;5.176;2023-06-22T01:00:39;6.82;;;4.43;;
36411;SDS011;22445;52.100;5.176;2023-06-22T01:03:05;5.65;;;4.15;;
36411;SDS011;22445;52.100;5.176;2023-06-22T01:05:34;5.22;;;4.50;;
36411;SDS011;22445;52.100;5.176;2023-06-22T01:08:04;6.88;;;4.28;;
36411;SDS011;22445;52.100;5.176;2023-06-22T01:10:51;6.57;;;4.28;;
36411;SDS011;22445;52.100;5.176;2023-06-22T01:16:26;7.75;;;5.60;;
36411;SDS011;22445;52.100;5.176;2023-06-22T01:18:54;5.53;;;4.13;;
36411;SDS011;22445;52.100;5.176;2023-06-22T01:21:22;1.77;;;1.50;;
36411;SDS011;22445;52.100;5.176;2023-06-22T01:23:54;2.25;;;1.45;;
36411;SDS011;22445;52.100;5.176;2023-06-22T01:26:28;4.70;;;3.97;;
36411;SDS011;22445;52.100;5.176;2023-06-22T01:29:04;7.07;;;5.20;;
36411;SDS011;22445;52.100;5.176;2023-06-22T01:31:32;7.68;;;4.90;;
36411;SDS011;22445;52.100;5.176;2023-06-22T01:34:00;9.60;;;5.82;;
36411;SDS011;22445;52.100;5.176;2023-06-22T01:36:27;8.85;;;6.22;;
36411;SDS011;22445;52.100;5.176;2023-06-22T01:38:54;10.73;;;7.05;;
36411;SDS011;22445;52.100;5.176;2023-06-22T01:41:24;10.30;;;6.70;;
36411;SDS011;22445;52.100;5.176;2023-06-22T01:43:50;11.60;;;7.93;;
36411;SDS011;22445;52.100;5.176;2023-06-22T01:46:16;10.90;;;7.35;;
36411;SDS011;22445;52.100;5.176;2023-06-22T01:48:44;9.25;;;7.22;;
36411;SDS011;22445;52.100;5.176;2023-06-22T01:51:10;9.27;;;7.28;;
36411;SDS011;22445;52.100;5.176;2023-06-22T01:53:36;12.43;;;7.53;;
36411;SDS011;22445;52.100;5.176;2023-06-22T01:56:02;12.25;;;9.23;;
36411;SDS011;22445;52.100;5.176;2023-06-22T01:58:28;12.65;;;7.95;;
36411;SDS011;22445;52.100;5.176;2023-06-22T02:00:56;15.90;;;8.52;;
36411;SDS011;22445;52.100;5.176;2023-06-22T02:03:31;13.48;;;8.85;;
36411;SDS011;22445;52.100;5.176;2023-06-22T02:06:34;14.60;;;10.38;;
36411;SDS011;22445;52.100;5.176;2023-06-22T02:08:55;13.23;;;9.80;;
36411;SDS011;22445;52.100;5.176;2023-06-22T02:11:24;17.17;;;7.35;;
36411;SDS011;22445;52.100;5.176;2023-06-22T02:13:52;12.27;;;8.43;;
36411;SDS011;22445;52.100;5.176;2023-06-22T02:16:18;9.32;;;7.30;;
36411;SDS011;22445;52.100;5.176;2023-06-22T02:18:48;12.02;;;7.55;;
36411;SDS011;22445;52.100;5.176;2023-06-22T02:21:17;12.02;;;8.23;;
36411;SDS011;22445;52.100;5.176;2023-06-22T02:23:43;12.02;;;9.20;;
36411;SDS011;22445;52.100;5.176;2023-06-22T02:26:09;9.50;;;7.70;;
36411;SDS011;22445;52.100;5.176;2023-06-22T02:28:35;19.20;;;11.57;;
36411;SDS011;22445;52.100;5.176;2023-06-22T02:31:00;18.63;;;12.13;;
36411;SDS011;22445;52.100;5.176;2023-06-22T02:33:26;20.73;;;11.48;;
36411;SDS011;22445;52.100;5.176;2023-06-22T02:35:52;14.52;;;10.30;;
36411;SDS011;22445;52.100;5.176;2023-06-22T02:38:18;15.70;;;10.65;;
36411;SDS011;22445;52.100;5.176;2023-06-22T02:40:44;5.97;;;4.30;;
36411;SDS011;22445;52.100;5.176;2023-06-22T02:43:10;8.27;;;6.47;;
36411;SDS011;22445;52.100;5.176;2023-06-22T02:45:36;15.00;;;10.27;;
36411;SDS011;22445;52.100;5.176;2023-06-22T02:48:01;13.77;;;9.23;;
36411;SDS011;22445;52.100;5.176;2023-06-22T02:50:27;13.68;;;8.93;;
36411;SDS011;22445;52.100;5.176;2023-06-22T02:52:53;15.32;;;10.38;;
36411;SDS011;22445;52.100;5.176;2023-06-22T02:55:18;20.27;;;13.77;;
36411;SDS011;22445;52.100;5.176;2023-06-22T02:57:44;16.15;;;11.95;;
36411;SDS011;22445;52.100;5.176;2023-06-22T03:00:12;11.75;;;8.63;;
36411;SDS011;22445;52.100;5.176;2023-06-22T03:02:47;15.55;;;10.35;;
36411;SDS011;22445;52.100;5.176;2023-06-22T03:05:14;19.38;;;11.70;;
36411;SDS011;22445;52.100;5.176;2023-06-22T03:07:40;19.50;;;11.93;;
36411;SDS011;22445;52.100;5.176;2023-06-22T03:10:08;19.40;;;11.98;;
36411;SDS011;22445;52.100;5.176;2023-06-22T03:12:37;20.80;;;13.45;;
36411;SDS011;22445;52.100;5.176;2023-06-22T03:15:13;21.10;;;12.95;;
36411;SDS011;22445;52.100;5.176;2023-06-22T03:17:39;26.10;;;16.05;;
36411;SDS011;22445;52.100;5.176;2023-06-22T03:20:05;22.38;;;14.25;;
36411;SDS011;22445;52.100;5.176;2023-06-22T03:22:35;16.30;;;11.00;;
36411;SDS011;22445;52.100;5.176;2023-06-22T03:25:02;18.02;;;11.82;;
36411;SDS011;22445;52.100;5.176;2023-06-22T03:27:27;16.35;;;11.45;;
36411;SDS011;22445;52.100;5.176;2023-06-22T03:29:53;16.63;;;11.00;;
36411;SDS011;22445;52.100;5.176;2023-06-22T03:32:18;15.35;;;10.77;;
36411;SDS011;22445;52.100;5.176;2023-06-22T03:34:44;13.70;;;10.48;;
36411;SDS011;22445;52.100;5.176;2023-06-22T03:37:13;21.58;;;13.50;;
36411;SDS011;22445;52.100;5.176;2023-06-22T03:39:40;31.30;;;18.92;;
36411;SDS011;22445;52.100;5.176;2023-06-22T03:42:06;25.88;;;16.20;;
36411;SDS011;22445;52.100;5.176;2023-06-22T03:44:32;27.40;;;17.38;;
36411;SDS011;22445;52.100;5.176;2023-06-22T03:46:57;29.33;;;18.13;;
36411;SDS011;22445;52.100;5.176;2023-06-22T03:49:23;15.40;;;11.32;;
36411;SDS011;22445;52.100;5.176;2023-06-22T03:51:48;30.08;;;18.02;;
36411;SDS011;22445;52.100;5.176;2023-06-22T03:54:14;29.08;;;16.92;;
36411;SDS011;22445;52.100;5.176;2023-06-22T03:56:39;28.27;;;19.30;;
36411;SDS011;22445;52.100;5.176;2023-06-22T03:59:05;29.45;;;18.98;;
36411;SDS011;22445;52.100;5.176;2023-06-22T04:01:30;34.03;;;19.65;;
36411;SDS011;22445;52.100;5.176;2023-06-22T04:03:56;33.08;;;19.25;;
36411;SDS011;22445;52.100;5.176;2023-06-22T04:06:21;32.80;;;20.23;;
36411;SDS011;22445;52.100;5.176;2023-06-22T04:08:47;37.88;;;21.67;;
36411;SDS011;22445;52.100;5.176;2023-06-22T04:11:16;31.85;;;19.45;;
36411;SDS011;22445;52.100;5.176;2023-06-22T04:13:43;30.60;;;19.95;;
36411;SDS011;22445;52.100;5.176;2023-06-22T04:16:08;36.50;;;22.25;;
36411;SDS011;22445;52.100;5.176;2023-06-22T04:18:34;27.67;;;18.35;;
36411;SDS011;22445;52.100;5.176;2023-06-22T04:21:00;30.75;;;18.60;;
36411;SDS011;22445;52.100;5.176;2023-06-22T04:23:25;31.38;;;21.23;;
36411;SDS011;22445;52.100;5.176;2023-06-22T04:25:51;33.28;;;21.60;;
36411;SDS011;22445;52.100;5.176;2023-06-22T04:28:17;28.40;;;18.35;;
36411;SDS011;22445;52.100;5.176;2023-06-22T04:30:43;39.45;;;22.27;;
36411;SDS011;22445;52.100;5.176;2023-06-22T04:33:12;40.53;;;24.00;;
36411;SDS011;22445;52.100;5.176;2023-06-22T04:35:38;40.13;;;24.45;;
36411;SDS011;22445;52.100;5.176;2023-06-22T04:38:06;43.13;;;26.52;;
36411;SDS011;22445;52.100;5.176;2023-06-22T04:40:32;44.58;;;26.27;;
36411;SDS011;22445;52.100;5.176;2023-06-22T04:42:58;45.67;;;25.20;;
36411;SDS011;22445;52.100;5.176;2023-06-22T04:45:27;41.97;;;24.92;;
36411;SDS011;22445;52.100;5.176;2023-06-22T04:47:54;36.67;;;22.55;;
36411;SDS011;22445;52.100;5.176;2023-06-22T04:50:20;44.28;;;26.60;;
36411;SDS011;22445;52.100;5.176;2023-06-22T04:52:48;37.17;;;23.70;;
36411;SDS011;22445;52.100;5.176;2023-06-22T04:55:15;41.40;;;25.88;;
36411;SDS011;22445;52.100;5.176;2023-06-22T04:57:46;34.80;;;21.65;;
36411;SDS011;22445;52.100;5.176;2023-06-22T05:00:18;39.97;;;26.30;;
36411;SDS011;22445;52.100;5.176;2023-06-22T05:02:45;42.33;;;27.83;;
36411;SDS011;22445;52.100;5.176;2023-06-22T05:05:12;37.28;;;25.27;;
36411;SDS011;22445;52.100;5.176;2023-06-22T05:07:49;39.85;;;24.52;;
36411;SDS011;22445;52.100;5.176;2023-06-22T05:10:18;37.97;;;26.60;;
36411;SDS011;22445;52.100;5.176;2023-06-22T05:12:46;35.92;;;25.67;;
36411;SDS011;22445;52.100;5.176;2023-06-22T05:15:12;40.22;;;24.02;;
36411;SDS011;22445;52.100;5.176;2023-06-22T05:17:37;33.38;;;24.02;;
36411;SDS011;22445;52.100;5.176;2023-06-22T05:20:10;35.05;;;22.50;;
36411;SDS011;22445;52.100;5.176;2023-06-22T05:22:37;32.65;;;23.73;;
36411;SDS011;22445;52.100;5.176;2023-06-22T05:25:04;36.80;;;24.70;;
36411;SDS011;22445;52.100;5.176;2023-06-22T05:27:33;33.33;;;24.38;;
36411;SDS011;22445;52.100;5.176;2023-06-22T05:29:59;32.22;;;22.88;;
36411;SDS011;22445;52.100;5.176;2023-06-22T05:32:24;32.42;;;24.50;;
36411;SDS011;22445;52.100;5.176;2023-06-22T05:34:50;29.48;;;21.77;;
36411;SDS011;22445;52.100;5.176;2023-06-22T05:37:16;31.02;;;22.75;;
36411;SDS011;22445;52.100;5.176;2023-06-22T05:39:41;29.77;;;21.83;;
36411;SDS011;22445;52.100;5.176;2023-06-22T05:42:07;22.90;;;18.98;;
36411;SDS011;22445;52.100;5.176;2023-06-22T05:44:33;27.98;;;19.75;;
36411;SDS011;22445;52.100;5.176;2023-06-22T05:46:59;24.13;;;19.88;;
36411;SDS011;22445;52.100;5.176;2023-06-22T05:49:24;24.88;;;20.88;;
36411;SDS011;22445;52.100;5.176;2023-06-22T05:51:54;22.63;;;19.15;;
36411;SDS011;22445;52.100;5.176;2023-06-22T05:54:21;24.58;;;19.70;;
36411;SDS011;22445;52.100;5.176;2023-06-22T05:56:47;23.05;;;18.17;;
36411;SDS011;22445;52.100;5.176;2023-06-22T05:59:12;21.02;;;18.83;;
36411;SDS011;22445;52.100;5.176;2023-06-22T06:01:38;22.45;;;17.52;;
36411;SDS011;22445;52.100;5.176;2023-06-22T06:04:05;21.90;;;18.95;;
36411;SDS011;22445;52.100;5.176;2023-06-22T06:06:33;21.48;;;19.10;;
36411;SDS011;22445;52.100;5.176;2023-06-22T06:09:03;19.55;;;17.25;;
36411;SDS011;22445;52.100;5.176;2023-06-22T06:11:29;22.45;;;17.30;;
36411;SDS011;22445;52.100;5.176;2023-06-22T06:13:54;20.20;;;16.98;;
36411;SDS011;22445;52.100;5.176;2023-06-22T06:16:20;20.30;;;16.80;;
36411;SDS011;22445;52.100;5.176;2023-06-22T06:18:46;23.55;;;18.52;;
36411;SDS011;22445;52.100;5.176;2023-06-22T06:21:11;22.85;;;16.85;;
36411;SDS011;22445;52.100;5.176;2023-06-22T06:23:37;20.63;;;16.85;;
36411;SDS011;22445;52.100;5.176;2023-06-22T06:26:02;19.35;;;17.05;;
36411;SDS011;22445;52.100;5.176;2023-06-22T06:28:32;21.00;;;16.35;;
36411;SDS011;22445;52.100;5.176;2023-06-22T06:30:58;19.90;;;16.52;;
36411;SDS011;22445;52.100;5.176;2023-06-22T06:33:24;17.85;;;16.05;;
36411;SDS011;22445;52.100;5.176;2023-06-22T06:35:49;19.83;;;17.75;;
36411;SDS011;22445;52.100;5.176;2023-06-22T06:38:15;20.77;;;17.45;;
36411;SDS011;22445;52.100;5.176;2023-06-22T06:40:40;18.90;;;16.98;;
36411;SDS011;22445;52.100;5.176;2023-06-22T06:43:06;19.77;;;14.82;;
36411;SDS011;22445;52.100;5.176;2023-06-22T06:45:31;19.52;;;15.77;;
36411;SDS011;22445;52.100;5.176;2023-06-22T06:47:59;18.20;;;15.98;;
36411;SDS011;22445;52.100;5.176;2023-06-22T06:50:25;18.92;;;14.88;;
36411;SDS011;22445;52.100;5.176;2023-06-22T06:52:50;17.88;;;14.90;;
36411;SDS011;22445;52.100;5.176;2023-06-22T06:55:16;17.83;;;15.90;;
36411;SDS011;22445;52.100;5.176;2023-06-22T06:57:42;15.70;;;14.05;;
36411;SDS011;22445;52.100;5.176;2023-06-22T07:00:11;16.13;;;14.18;;
36411;SDS011;22445;52.100;5.176;2023-06-22T07:02:39;16.95;;;13.55;;
36411;SDS011;22445;52.100;5.176;2023-06-22T07:05:06;16.05;;;13.27;;
36411;SDS011;22445;52.100;5.176;2023-06-22T07:07:32;16.80;;;13.00;;
36411;SDS011;22445;52.100;5.176;2023-06-22T07:09:57;14.43;;;12.73;;
36411;SDS011;22445;52.100;5.176;2023-06-22T07:12:23;14.32;;;12.82;;
36411;SDS011;22445;52.100;5.176;2023-06-22T07:14:48;14.43;;;12.73;;
36411;SDS011;22445;52.100;5.176;2023-06-22T07:17:15;16.55;;;14.18;;
36411;SDS011;22445;52.100;5.176;2023-06-22T07:19:41;15.23;;;12.70;;
36411;SDS011;22445;52.100;5.176;2023-06-22T07:22:07;16.15;;;13.40;;
36411;SDS011;22445;52.100;5.176;2023-06-22T07:24:33;15.18;;;13.30;;
36411;SDS011;22445;52.100;5.176;2023-06-22T07:26:58;13.57;;;12.10;;
36411;SDS011;22445;52.100;5.176;2023-06-22T07:29:24;16.05;;;13.52;;
36411;SDS011;22445;52.100;5.176;2023-06-22T07:31:51;16.85;;;13.63;;
36411;SDS011;22445;52.100;5.176;2023-06-22T07:34:17;15.60;;;12.90;;
36411;SDS011;22445;52.100;5.176;2023-06-22T07:36:43;15.98;;;13.52;;
36411;SDS011;22445;52.100;5.176;2023-06-22T07:39:11;15.73;;;12.43;;
36411;SDS011;22445;52.100;5.176;2023-06-22T07:41:38;16.35;;;13.95;;
36411;SDS011;22445;52.100;5.176;2023-06-22T07:44:04;15.80;;;12.60;;
36411;SDS011;22445;52.100;5.176;2023-06-22T07:46:31;15.20;;;11.15;;
36411;SDS011;22445;52.100;5.176;2023-06-22T07:48:57;13.45;;;10.63;;
36411;SDS011;22445;52.100;5.176;2023-06-22T07:51:22;13.35;;;11.63;;
36411;SDS011;22445;52.100;5.176;2023-06-22T07:53:48;14.52;;;12.32;;
36411;SDS011;22445;52.100;5.176;2023-06-22T07:56:14;14.07;;;11.93;;
36411;SDS011;22445;52.100;5.176;2023-06-22T07:58:44;13.80;;;12.25;;
36411;SDS011;22445;52.100;5.176;2023-06-22T08:01:11;13.90;;;9.93;;
36411;SDS011;22445;52.100;5.176;2023-06-22T08:03:37;9.57;;;8.68;;
36411;SDS011;22445;52.100;5.176;2023-06-22T08:06:03;12.10;;;10.80;;
36411;SDS011;22445;52.100;5.176;2023-06-22T08:08:28;11.40;;;10.30;;
36411;SDS011;22445;52.100;5.176;2023-06-22T08:10:54;10.63;;;9.55;;
36411;SDS011;22445;52.100;5.176;2023-06-22T08:13:20;9.23;;;8.30;;
36411;SDS011;22445;52.100;5.176;2023-06-22T08:15:45;11.40;;;8.93;;
36411;SDS011;22445;52.100;5.176;2023-06-22T08:18:11;12.40;;;9.40;;
36411;SDS011;22445;52.100;5.176;2023-06-22T08:20:36;9.20;;;8.30;;
36411;SDS011;22445;52.100;5.176;2023-06-22T08:23:02;9.23;;;8.30;;
36411;SDS011;22445;52.100;5.176;2023-06-22T08:25:30;11.48;;;9.52;;
36411;SDS011;22445;52.100;5.176;2023-06-22T08:27:56;10.85;;;8.73;;
36411;SDS011;22445;52.100;5.176;2023-06-22T08:30:21;13.65;;;8.40;;
36411;SDS011;22445;52.100;5.176;2023-06-22T08:32:47;10.40;;;7.78;;
36411;SDS011;22445;52.100;5.176;2023-06-22T08:35:13;8.88;;;7.63;;
36411;SDS011;22445;52.100;5.176;2023-06-22T08:37:39;8.48;;;6.72;;
36411;SDS011;22445;52.100;5.176;2023-06-22T08:40:06;8.75;;;6.70;;
36411;SDS011;22445;52.100;5.176;2023-06-22T08:42:33;8.55;;;6.07;;
36411;SDS011;22445;52.100;5.176;2023-06-22T08:44:59;10.07;;;7.03;;
36411;SDS011;22445;52.100;5.176;2023-06-22T08:47:25;5.25;;;4.43;;
36411;SDS011;22445;52.100;5.176;2023-06-22T08:49:52;6.68;;;4.60;;
36411;SDS011;22445;52.100;5.176;2023-06-22T08:52:18;5.13;;;4.57;;
36411;SDS011;22445;52.100;5.176;2023-06-22T08:54:45;6.22;;;4.90;;
36411;SDS011;22445;52.100;5.176;2023-06-22T08:57:11;4.28;;;3.38;;
36411;SDS011;22445;52.100;5.176;2023-06-22T08:59:36;4.95;;;3.70;;
36411;SDS011;22445;52.100;5.176;2023-06-22T09:02:02;4.68;;;3.67;;
36411;SDS011;22445;52.100;5.176;2023-06-22T09:04:28;5.53;;;3.60;;
36411;SDS011;22445;52.100;5.176;2023-06-22T09:06:53;5.50;;;3.65;;
36411;SDS011;22445;52.100;5.176;2023-06-22T09:09:19;5.13;;;4.05;;
36411;SDS011;22445;52.100;5.176;2023-06-22T09:11:46;5.55;;;4.18;;
36411;SDS011;22445;52.100;5.176;2023-06-22T09:14:12;6.30;;;4.43;;
36411;SDS011;22445;52.100;5.176;2023-06-22T09:16:37;8.65;;;4.78;;
36411;SDS011;22445;52.100;5.176;2023-06-22T09:19:03;5.18;;;3.60;;
36411;SDS011;22445;52.100;5.176;2023-06-22T09:21:29;4.43;;;3.70;;
36411;SDS011;22445;52.100;5.176;2023-06-22T09:23:54;5.32;;;3.88;;
36411;SDS011;22445;52.100;5.176;2023-06-22T09:26:20;5.28;;;4.60;;
36411;SDS011;22445;52.100;5.176;2023-06-22T09:28:46;5.32;;;4.20;;
36411;SDS011;22445;52.100;5.176;2023-06-22T09:31:12;5.93;;;4.18;;
36411;SDS011;22445;52.100;5.176;2023-06-22T09:33:39;8.00;;;4.72;;
36411;SDS011;22445;52.100;5.176;2023-06-22T09:36:05;6.82;;;4.15;;
36411;SDS011;22445;52.100;5.176;2023-06-22T09:38:34;5.55;;;4.40;;
36411;SDS011;22445;52.100;5.176;2023-06-22T09:41:01;5.55;;;3.35;;
36411;SDS011;22445;52.100;5.176;2023-06-22T09:43:26;5.28;;;4.25;;
36411;SDS011;22445;52.100;5.176;2023-06-22T09:45:52;5.28;;;3.53;;
36411;SDS011;22445;52.100;5.176;2023-06-22T09:48:18;4.47;;;3.33;;
36411;SDS011;22445;52.100;5.176;2023-06-22T09:50:43;3.67;;;3.33;;
36411;SDS011;22445;52.100;5.176;2023-06-22T09:53:09;4.40;;;3.78;;
36411;SDS011;22445;52.100;5.176;2023-06-22T09:55:35;5.78;;;3.15;;
36411;SDS011;22445;52.100;5.176;2023-06-22T09:58:00;4.40;;;3.40;;
36411;SDS011;22445;52.100;5.176;2023-06-22T10:00:26;4.15;;;3.75;;
36411;SDS011;22445;52.100;5.176;2023-06-22T10:02:54;9.70;;;4.18;;
36411;SDS011;22445;52.100;5.176;2023-06-22T10:05:21;3.17;;;2.90;;
36411;SDS011;22445;52.100;5.176;2023-06-22T10:07:47;4.63;;;3.50;;
36411;SDS011;22445;52.100;5.176;2023-06-22T10:10:13;4.88;;;3.17;;
36411;SDS011;22445;52.100;5.176;2023-06-22T10:12:43;3.60;;;3.13;;
36411;SDS011;22445;52.100;5.176;2023-06-22T10:15:11;3.30;;;2.92;;
36411;SDS011;22445;52.100;5.176;2023-06-22T10:17:37;4.82;;;2.92;;
36411;SDS011;22445;52.100;5.176;2023-06-22T10:20:03;3.83;;;3.30;;
36411;SDS011;22445;52.100;5.176;2023-06-22T10:22:39;4.90;;;4.20;;
36411;SDS011;22445;52.100;5.176;2023-06-22T10:25:06;3.53;;;3.22;;
36411;SDS011;22445;52.100;5.176;2023-06-22T10:27:32;5.57;;;4.10;;
36411;SDS011;22445;52.100;5.176;2023-06-22T10:29:58;6.22;;;4.95;;
36411;SDS011;22445;52.100;5.176;2023-06-22T10:32:23;5.20;;;4.40;;
36411;SDS011;22445;52.100;5.176;2023-06-22T10:34:49;5.15;;;3.97;;
36411;SDS011;22445;52.100;5.176;2023-06-22T10:37:15;4.72;;;3.72;;
36411;SDS011;22445;52.100;5.176;2023-06-22T10:39:40;6.90;;;4.50;;
36411;SDS011;22445;52.100;5.176;2023-06-22T10:42:07;6.55;;;5.53;;
36411;SDS011;22445;52.100;5.176;2023-06-22T10:44:33;6.20;;;4.80;;
36411;SDS011;22445;52.100;5.176;2023-06-22T10:46:58;5.15;;;4.18;;
36411;SDS011;22445;52.100;5.176;2023-06-22T10:49:24;4.35;;;3.63;;
36411;SDS011;22445;52.100;5.176;2023-06-22T10:51:49;4.63;;;3.75;;
36411;SDS011;22445;52.100;5.176;2023-06-22T10:54:15;5.63;;;5.13;;
36411;SDS011;22445;52.100;5.176;2023-06-22T10:56:43;4.40;;;4.00;;
36411;SDS011;22445;52.100;5.176;2023-06-22T10:59:09;5.38;;;4.18;;
36411;SDS011;22445;52.100;5.176;2023-06-22T11:01:37;4.72;;;3.40;;
36411;SDS011;22445;52.100;5.176;2023-06-22T11:04:02;6.28;;;5.05;;
36411;SDS011;22445;52.100;5.176;2023-06-22T11:06:28;7.65;;;4.57;;
36411;SDS011;22445;52.100;5.176;2023-06-22T11:08:54;6.22;;;4.07;;
36411;SDS011;22445;52.100;5.176;2023-06-22T11:11:20;6.10;;;4.15;;
36411;SDS011;22445;52.100;5.176;2023-06-22T11:13:45;7.85;;;5.45;;
36411;SDS011;22445;52.100;5.176;2023-06-22T11:16:11;7.75;;;5.40;;
36411;SDS011;22445;52.100;5.176;2023-06-22T11:18:36;6.00;;;4.60;;
36411;SDS011;22445;52.100;5.176;2023-06-22T11:21:02;5.95;;;5.07;;
36411;SDS011;22445;52.100;5.176;2023-06-22T11:23:27;5.55;;;4.18;;
36411;SDS011;22445;52.100;5.176;2023-06-22T11:25:54;7.82;;;5.10;;
36411;SDS011;22445;52.100;5.176;2023-06-22T11:28:19;5.78;;;4.95;;
36411;SDS011;22445;52.100;5.176;2023-06-22T11:30:45;6.55;;;4.25;;
36411;SDS011;22445;52.100;5.176;2023-06-22T11:33:11;6.57;;;4.40;;
36411;SDS011;22445;52.100;5.176;2023-06-22T11:35:37;6.15;;;4.63;;
36411;SDS011;22445;52.100;5.176;2023-06-22T11:38:02;5.20;;;4.03;;
36411;SDS011;22445;52.100;5.176;2023-06-22T11:40:29;6.32;;;5.03;;
36411;SDS011;22445;52.100;5.176;2023-06-22T11:42:54;5.07;;;4.40;;
36411;SDS011;22445;52.100;5.176;2023-06-22T11:45:20;5.30;;;4.13;;
36411;SDS011;22445;52.100;5.176;2023-06-22T11:47:46;4.25;;;3.67;;
36411;SDS011;22445;52.100;5.176;2023-06-22T11:50:12;4.57;;;3.88;;
36411;SDS011;22445;52.100;5.176;2023-06-22T11:52:37;8.63;;;5.05;;
36411;SDS011;22445;52.100;5.176;2023-06-22T11:55:03;4.15;;;3.53;;
36411;SDS011;22445;52.100;5.176;2023-06-22T11:57:32;6.57;;;4.53;;
36411;SDS011;22445;52.100;5.176;2023-06-22T11:59:59;6.90;;;4.60;;
36411;SDS011;22445;52.100;5.176;2023-06-22T12:02:24;6.25;;;5.15;;
36411;SDS011;22445;52.100;5.176;2023-06-22T12:04:50;6.28;;;5.28;;
36411;SDS011;22445;52.100;5.176;2023-06-22T12:07:18;6.00;;;4.90;;
36411;SDS011;22445;52.100;5.176;2023-06-22T12:09:43;6.18;;;4.47;;
36411;SDS011;22445;52.100;5.176;2023-06-22T12:12:09;7.22;;;6.53;;
36411;SDS011;22445;52.100;5.176;2023-06-22T12:14:35;8.13;;;6.25;;
36411;SDS011;22445;52.100;5.176;2023-06-22T12:17:01;6.30;;;5.68;;
36411;SDS011;22445;52.100;5.176;2023-06-22T12:19:26;8.65;;;6.60;;
36411;SDS011;22445;52.100;5.176;2023-06-22T12:21:52;7.20;;;5.93;;
36411;SDS011;22445;52.100;5.176;2023-06-22T12:24:17;7.07;;;6.38;;
36411;SDS011;22445;52.100;5.176;2023-06-22T12:26:43;10.38;;;6.55;;
36411;SDS011;22445;52.100;5.176;2023-06-22T12:29:09;7.63;;;6.82;;
36411;SDS011;22445;52.100;5.176;2023-06-22T12:31:35;7.90;;;7.10;;
36411;SDS011;22445;52.100;5.176;2023-06-22T12:34:01;7.82;;;6.40;;
36411;SDS011;22445;52.100;5.176;2023-06-22T12:36:27;7.43;;;6.55;;
36411;SDS011;22445;52.100;5.176;2023-06-22T12:38:53;10.57;;;6.30;;
36411;SDS011;22445;52.100;5.176;2023-06-22T12:41:19;9.35;;;6.55;;
36411;SDS011;22445;52.100;5.176;2023-06-22T12:43:44;9.68;;;6.35;;
36411;SDS011;22445;52.100;5.176;2023-06-22T12:46:10;8.05;;;6.82;;
36411;SDS011;22445;52.100;5.176;2023-06-22T12:48:36;6.68;;;5.78;;
36411;SDS011;22445;52.100;5.176;2023-06-22T12:51:06;9.45;;;6.53;;
36411;SDS011;22445;52.100;5.176;2023-06-22T12:53:33;5.72;;;5.15;;
36411;SDS011;22445;52.100;5.176;2023-06-22T12:55:58;7.60;;;6.90;;
36411;SDS011;22445;52.100;5.176;2023-06-22T12:58:24;7.20;;;6.50;;
36411;SDS011;22445;52.100;5.176;2023-06-22T13:00:49;8.40;;;5.30;;
36411;SDS011;22445;52.100;5.176;2023-06-22T13:03:15;9.23;;;8.00;;
36411;SDS011;22445;52.100;5.176;2023-06-22T13:05:40;8.65;;;7.43;;
36411;SDS011;22445;52.100;5.176;2023-06-22T13:08:06;9.13;;;7.70;;
36411;SDS011;22445;52.100;5.176;2023-06-22T13:10:33;8.23;;;7.25;;
36411;SDS011;22445;52.100;5.176;2023-06-22T13:12:58;10.95;;;8.95;;
36411;SDS011;22445;52.100;5.176;2023-06-22T13:15:28;11.10;;;10.00;;
36411;SDS011;22445;52.100;5.176;2023-06-22T13:17:54;10.07;;;9.07;;
36411;SDS011;22445;52.100;5.176;2023-06-22T13:20:20;11.35;;;8.65;;
36411;SDS011;22445;52.100;5.176;2023-06-22T13:22:46;9.52;;;8.48;;
36411;SDS011;22445;52.100;5.176;2023-06-22T13:25:12;11.35;;;10.25;;
36411;SDS011;22445;52.100;5.176;2023-06-22T13:27:41;12.10;;;9.20;;
36411;SDS011;22445;52.100;5.176;2023-06-22T13:30:07;12.13;;;9.40;;
36411;SDS011;22445;52.100;5.176;2023-06-22T13:32:33;13.13;;;10.40;;
36411;SDS011;22445;52.100;5.176;2023-06-22T13:34:59;11.90;;;10.73;;
36411;SDS011;22445;52.100;5.176;2023-06-22T13:37:25;13.68;;;11.65;;
36411;SDS011;22445;52.100;5.176;2023-06-22T13:39:51;14.18;;;11.05;;
36411;SDS011;22445;52.100;5.176;2023-06-22T13:42:17;13.55;;;12.18;;
36411;SDS011;22445;52.100;5.176;2023-06-22T13:44:42;14.25;;;12.35;;
36411;SDS011;22445;52.100;5.176;2023-06-22T13:47:08;12.95;;;11.55;;
36411;SDS011;22445;52.100;5.176;2023-06-22T13:49:34;13.80;;;12.40;;
36411;SDS011;22445;52.100;5.176;2023-06-22T13:52:00;12.20;;;10.95;;
36411;SDS011;22445;52.100;5.176;2023-06-22T13:54:28;16.88;;;10.68;;
36411;SDS011;22445;52.100;5.176;2023-06-22T13:56:53;17.50;;;12.65;;
36411;SDS011;22445;52.100;5.176;2023-06-22T13:59:19;15.98;;;11.10;;
36411;SDS011;22445;52.100;5.176;2023-06-22T14:01:45;16.35;;;13.32;;
36411;SDS011;22445;52.100;5.176;2023-06-22T14:04:11;15.20;;;12.68;;
36411;SDS011;22445;52.100;5.176;2023-06-22T14:06:37;14.50;;;13.00;;
36411;SDS011;22445;52.100;5.176;2023-06-22T14:09:03;13.05;;;11.70;;
36411;SDS011;22445;52.100;5.176;2023-06-22T14:11:28;12.40;;;11.23;;
36411;SDS011;22445;52.100;5.176;2023-06-22T14:13:54;16.23;;;12.77;;
36411;SDS011;22445;52.100;5.176;2023-06-22T14:16:19;16.70;;;12.65;;
36411;SDS011;22445;52.100;5.176;2023-06-22T14:18:45;13.95;;;12.52;;
36411;SDS011;22445;52.100;5.176;2023-06-22T14:21:11;13.70;;;11.52;;
36411;SDS011;22445;52.100;5.176;2023-06-22T14:23:36;12.75;;;11.60;;
36411;SDS011;22445;52.100;5.176;2023-06-22T14:26:03;12.77;;;11.57;;
36411;SDS011;22445;52.100;5.176;2023-06-22T14:28:28;12.60;;;11.30;;
36411;SDS011;22445;52.100;5.176;2023-06-22T14:30:54;15.40;;;12.95;;
36411;SDS011;22445;52.100;5.176;2023-06-22T14:33:19;16.13;;;12.00;;